sensor_id;sensor_type;location;lat;lon;timestamp;pressure;altitude;pressure_sealevel;temperature;humidity
81181;BME280;70650;51.408;7.132;2024-02-21T00:01:25;101063.34;;;7.76;86.22
81181;BME280;70650;51.408;7.132;2024-02-21T00:03:51;101054.56;;;7.77;86.61
81181;BME280;70650;51.408;7.132;2024-02-21T00:06:16;101041.28;;;7.80;86.56
81181;BME280;70650;51.408;7.132;2024-02-21T00:08:41;101043.81;;;7.83;86.67
81181;BME280;70650;51.408;7.132;2024-02-21T00:11:06;101039.41;;;7.84;86.99
81181;BME280;70650;51.408;7.132;2024-02-21T00:13:32;101038.75;;;7.77;86.57
81181;BME280;70650;51.408;7.132;2024-02-21T00:15:59;101037.69;;;7.83;86.70
81181;BME280;70650;51.408;7.132;2024-02-21T00:18:25;101039.38;;;7.85;86.57
81181;BME280;70650;51.408;7.132;2024-02-21T00:20:50;101027.97;;;7.85;86.34
81181;BME280;70650;51.408;7.132;2024-02-21T00:23:15;101032.38;;;7.84;86.23
81181;BME280;70650;51.408;7.132;2024-02-21T00:25:42;101029.59;;;7.89;85.95
81181;BME280;70650;51.408;7.132;2024-02-21T00:28:07;101012.13;;;7.86;86.40
81181;BME280;70650;51.408;7.132;2024-02-21T00:30:33;101012.97;;;7.87;86.18
81181;BME280;70650;51.408;7.132;2024-02-21T00:32:58;101004.16;;;7.88;86.10
81181;BME280;70650;51.408;7.132;2024-02-21T00:35:24;100995.41;;;7.87;85.78
81181;BME280;70650;51.408;7.132;2024-02-21T00:37:51;100994.59;;;7.85;86.21
81181;BME280;70650;51.408;7.132;2024-02-21T00:40:16;100999.72;;;7.90;85.88
81181;BME280;70650;51.408;7.132;2024-02-21T00:42:45;100997.94;;;7.90;85.94
81181;BME280;70650;51.408;7.132;2024-02-21T00:45:12;100988.34;;;7.89;86.01
81181;BME280;70650;51.408;7.132;2024-02-21T00:47:37;100987.22;;;7.96;85.91
81181;BME280;70650;51.408;7.132;2024-02-21T00:50:03;100984.78;;;7.90;85.80
81181;BME280;70650;51.408;7.132;2024-02-21T00:52:28;100989.28;;;7.87;86.00
81181;BME280;70650;51.408;7.132;2024-02-21T00:54:53;100983.22;;;7.85;85.99
81181;BME280;70650;51.408;7.132;2024-02-21T00:57:22;100980.38;;;7.91;85.98
81181;BME280;70650;51.408;7.132;2024-02-21T00:59:47;100972.53;;;7.89;86.12
81181;BME280;70650;51.408;7.132;2024-02-21T01:02:12;100977.81;;;7.89;86.11
81181;BME280;70650;51.408;7.132;2024-02-21T01:04:37;100977.94;;;7.85;86.34
81181;BME280;70650;51.408;7.132;2024-02-21T01:07:04;100975.38;;;7.83;86.44
81181;BME280;70650;51.408;7.132;2024-02-21T01:09:29;100977.94;;;7.85;86.35
81181;BME280;70650;51.408;7.132;2024-02-21T01:11:55;100966.69;;;7.80;86.50
81181;BME280;70650;51.408;7.132;2024-02-21T01:14:20;100958.81;;;7.80;86.68
81181;BME280;70650;51.408;7.132;2024-02-21T01:16:45;100956.88;;;7.85;86.25
81181;BME280;70650;51.408;7.132;2024-02-21T01:19:10;100955.19;;;7.82;86.49
81181;BME280;70650;51.408;7.132;2024-02-21T01:21:36;100954.19;;;7.86;86.41
81181;BME280;70650;51.408;7.132;2024-02-21T01:24:01;100949.00;;;7.85;86.46
81181;BME280;70650;51.408;7.132;2024-02-21T01:26:26;100950.69;;;7.86;86.33
81181;BME280;70650;51.408;7.132;2024-02-21T01:28:52;100941.16;;;7.83;86.52
81181;BME280;70650;51.408;7.132;2024-02-21T01:31:18;100929.84;;;7.80;86.80
81181;BME280;70650;51.408;7.132;2024-02-21T01:33:43;100910.63;;;7.78;86.99
81181;BME280;70650;51.408;7.132;2024-02-21T01:36:09;100905.34;;;7.78;86.94
81181;BME280;70650;51.408;7.132;2024-02-21T01:38:34;100900.19;;;7.75;87.11
81181;BME280;70650;51.408;7.132;2024-02-21T01:41:00;100904.69;;;7.71;87.06
81181;BME280;70650;51.408;7.132;2024-02-21T01:43:25;100913.34;;;7.75;87.21
81181;BME280;70650;51.408;7.132;2024-02-21T01:45:57;100909.75;;;7.77;87.06
81181;BME280;70650;51.408;7.132;2024-02-21T01:48:23;100905.34;;;7.78;86.97
81181;BME280;70650;51.408;7.132;2024-02-21T01:50:50;100899.06;;;7.82;86.58
81181;BME280;70650;51.408;7.132;2024-02-21T01:53:18;100889.59;;;7.76;87.02
81181;BME280;70650;51.408;7.132;2024-02-21T01:55:48;100886.09;;;7.76;87.17
81181;BME280;70650;51.408;7.132;2024-02-21T01:58:14;100894.81;;;7.78;87.02
81181;BME280;70650;51.408;7.132;2024-02-21T02:00:44;100900.88;;;7.80;87.14
81181;BME280;70650;51.408;7.132;2024-02-21T02:03:10;100889.56;;;7.78;87.12
81181;BME280;70650;51.408;7.132;2024-02-21T02:05:43;100886.88;;;7.79;87.25
81181;BME280;70650;51.408;7.132;2024-02-21T02:08:09;100887.72;;;7.80;87.03
81181;BME280;70650;51.408;7.132;2024-02-21T02:10:34;100886.88;;;7.79;87.20
81181;BME280;70650;51.408;7.132;2024-02-21T02:13:00;100884.28;;;7.78;87.26
81181;BME280;70650;51.408;7.132;2024-02-21T02:15:25;100883.31;;;7.80;87.35
81181;BME280;70650;51.408;7.132;2024-02-21T02:17:50;100876.44;;;7.76;87.13
81181;BME280;70650;51.408;7.132;2024-02-21T02:20:16;100870.16;;;7.80;87.26
81181;BME280;70650;51.408;7.132;2024-02-21T02:22:43;100861.50;;;7.77;87.39
81181;BME280;70650;51.408;7.132;2024-02-21T02:25:08;100869.16;;;7.84;86.95
81181;BME280;70650;51.408;7.132;2024-02-21T02:27:41;100853.50;;;7.80;87.06
81181;BME280;70650;51.408;7.132;2024-02-21T02:30:08;100856.03;;;7.83;87.31
81181;BME280;70650;51.408;7.132;2024-02-21T02:32:35;100853.66;;;7.75;87.42
81181;BME280;70650;51.408;7.132;2024-02-21T02:35:01;100841.25;;;7.79;87.07
81181;BME280;70650;51.408;7.132;2024-02-21T02:37:26;100833.50;;;7.74;87.57
81181;BME280;70650;51.408;7.132;2024-02-21T02:39:51;100831.69;;;7.76;87.29
81181;BME280;70650;51.408;7.132;2024-02-21T02:42:17;100824.75;;;7.74;87.15
81181;BME280;70650;51.408;7.132;2024-02-21T02:44:42;100825.72;;;7.71;87.44
81181;BME280;70650;51.408;7.132;2024-02-21T02:47:08;100812.63;;;7.69;87.67
81181;BME280;70650;51.408;7.132;2024-02-21T02:49:33;100807.34;;;7.69;87.35
81181;BME280;70650;51.408;7.132;2024-02-21T02:51:59;100803.38;;;7.58;88.14
81181;BME280;70650;51.408;7.132;2024-02-21T02:54:24;100806.13;;;7.55;88.10
81181;BME280;70650;51.408;7.132;2024-02-21T02:56:49;100805.84;;;7.62;87.55
81181;BME280;70650;51.408;7.132;2024-02-21T02:59:15;100795.38;;;7.61;87.43
81181;BME280;70650;51.408;7.132;2024-02-21T03:01:40;100794.63;;;7.57;87.74
81181;BME280;70650;51.408;7.132;2024-02-21T03:04:05;100787.72;;;7.53;87.78
81181;BME280;70650;51.408;7.132;2024-02-21T03:06:31;100793.06;;;7.52;88.06
81181;BME280;70650;51.408;7.132;2024-02-21T03:08:57;100810.34;;;7.59;87.61
81181;BME280;70650;51.408;7.132;2024-02-21T03:11:22;100801.53;;;7.60;87.41
81181;BME280;70650;51.408;7.132;2024-02-21T03:13:54;100799.88;;;7.57;87.71
81181;BME280;70650;51.408;7.132;2024-02-21T03:16:22;100783.94;;;7.62;87.41
81181;BME280;70650;51.408;7.132;2024-02-21T03:18:47;100784.94;;;7.58;88.03
81181;BME280;70650;51.408;7.132;2024-02-21T03:21:13;100780.47;;;7.60;87.39
81181;BME280;70650;51.408;7.132;2024-02-21T03:23:38;100790.81;;;7.66;86.94
81181;BME280;70650;51.408;7.132;2024-02-21T03:26:05;100788.13;;;7.67;86.95
81181;BME280;70650;51.408;7.132;2024-02-21T03:28:30;100789.75;;;7.72;86.96
81181;BME280;70650;51.408;7.132;2024-02-21T03:30:55;100778.53;;;7.66;86.72
81181;BME280;70650;51.408;7.132;2024-02-21T03:33:21;100760.09;;;7.66;87.34
81181;BME280;70650;51.408;7.132;2024-02-21T03:35:48;100752.22;;;7.65;87.06
81181;BME280;70650;51.408;7.132;2024-02-21T03:38:13;100755.91;;;7.61;87.19
81181;BME280;70650;51.408;7.132;2024-02-21T03:40:38;100760.09;;;7.66;86.55
81181;BME280;70650;51.408;7.132;2024-02-21T03:43:05;100757.47;;;7.66;86.54
81181;BME280;70650;51.408;7.132;2024-02-21T03:45:30;100753.22;;;7.62;86.69
81181;BME280;70650;51.408;7.132;2024-02-21T03:47:55;100759.28;;;7.64;86.79
81181;BME280;70650;51.408;7.132;2024-02-21T03:50:20;100754.84;;;7.66;86.66
81181;BME280;70650;51.408;7.132;2024-02-21T03:52:46;100758.31;;;7.67;86.69
81181;BME280;70650;51.408;7.132;2024-02-21T03:55:11;100765.38;;;7.65;86.90
81181;BME280;70650;51.408;7.132;2024-02-21T03:57:37;100753.28;;;7.61;87.01
81181;BME280;70650;51.408;7.132;2024-02-21T04:00:04;100768.00;;;7.66;86.94
81181;BME280;70650;51.408;7.132;2024-02-21T04:02:30;100770.56;;;7.68;86.34
81181;BME280;70650;51.408;7.132;2024-02-21T04:04:56;100774.06;;;7.68;86.75
81181;BME280;70650;51.408;7.132;2024-02-21T04:07:21;100774.00;;;7.70;86.52
81181;BME280;70650;51.408;7.132;2024-02-21T04:09:46;100789.63;;;7.75;86.51
81181;BME280;70650;51.408;7.132;2024-02-21T04:12:12;100790.63;;;7.70;86.42
81181;BME280;70650;51.408;7.132;2024-02-21T04:14:37;100783.50;;;7.74;86.49
81181;BME280;70650;51.408;7.132;2024-02-21T04:17:04;100791.63;;;7.68;86.39
81181;BME280;70650;51.408;7.132;2024-02-21T04:19:30;100792.38;;;7.72;85.99
81181;BME280;70650;51.408;7.132;2024-02-21T04:21:56;100780.88;;;7.74;86.47
81181;BME280;70650;51.408;7.132;2024-02-21T04:24:22;100789.75;;;7.72;86.37
81181;BME280;70650;51.408;7.132;2024-02-21T04:26:47;100780.81;;;7.76;86.27
81181;BME280;70650;51.408;7.132;2024-02-21T04:29:12;100780.81;;;7.76;85.78
81181;BME280;70650;51.408;7.132;2024-02-21T04:31:38;100779.00;;;7.78;85.10
81181;BME280;70650;51.408;7.132;2024-02-21T04:34:03;100779.72;;;7.81;84.89
81181;BME280;70650;51.408;7.132;2024-02-21T04:36:28;100773.84;;;7.75;85.36
81181;BME280;70650;51.408;7.132;2024-02-21T04:38:53;100780.94;;;7.73;85.69
81181;BME280;70650;51.408;7.132;2024-02-21T04:41:19;100770.41;;;7.73;85.61
81181;BME280;70650;51.408;7.132;2024-02-21T04:43:46;100780.06;;;7.72;85.91
81181;BME280;70650;51.408;7.132;2024-02-21T04:46:12;100777.47;;;7.70;85.74
81181;BME280;70650;51.408;7.132;2024-02-21T04:48:37;100767.81;;;7.71;85.81
81181;BME280;70650;51.408;7.132;2024-02-21T04:51:03;100773.13;;;7.69;86.01
81181;BME280;70650;51.408;7.132;2024-02-21T04:53:28;100764.22;;;7.74;85.84
81181;BME280;70650;51.408;7.132;2024-02-21T04:55:53;100774.06;;;7.68;85.98
81181;BME280;70650;51.408;7.132;2024-02-21T04:58:19;100779.31;;;7.68;86.09
81181;BME280;70650;51.408;7.132;2024-02-21T05:00:44;100768.69;;;7.72;85.56
81181;BME280;70650;51.408;7.132;2024-02-21T05:03:09;100762.53;;;7.71;85.45
81181;BME280;70650;51.408;7.132;2024-02-21T05:05:35;100767.88;;;7.69;85.08
81181;BME280;70650;51.408;7.132;2024-02-21T05:08:00;100748.44;;;7.74;84.60
81181;BME280;70650;51.408;7.132;2024-02-21T05:10:26;100758.25;;;7.68;84.83
81181;BME280;70650;51.408;7.132;2024-02-21T05:12:51;100762.53;;;7.71;84.17
81181;BME280;70650;51.408;7.132;2024-02-21T05:15:16;100756.25;;;7.75;84.00
81181;BME280;70650;51.408;7.132;2024-02-21T05:17:42;100756.31;;;7.74;84.06
81181;BME280;70650;51.408;7.132;2024-02-21T05:20:08;100759.81;;;7.74;84.69
81181;BME280;70650;51.408;7.132;2024-02-21T05:22:34;100747.63;;;7.72;84.46
81181;BME280;70650;51.408;7.132;2024-02-21T05:24:59;100742.38;;;7.72;84.62
81181;BME280;70650;51.408;7.132;2024-02-21T05:27:24;100734.50;;;7.70;84.67
81181;BME280;70650;51.408;7.132;2024-02-21T05:29:50;100740.63;;;7.70;84.61
81181;BME280;70650;51.408;7.132;2024-02-21T05:32:15;100747.81;;;7.65;84.93
81181;BME280;70650;51.408;7.132;2024-02-21T05:34:41;100741.63;;;7.68;84.79
81181;BME280;70650;51.408;7.132;2024-02-21T05:37:06;100740.00;;;7.64;84.65
81181;BME280;70650;51.408;7.132;2024-02-21T05:39:32;100745.09;;;7.68;84.77
81181;BME280;70650;51.408;7.132;2024-02-21T05:41:57;100736.28;;;7.69;84.84
81181;BME280;70650;51.408;7.132;2024-02-21T05:44:22;100721.50;;;7.65;85.02
81181;BME280;70650;51.408;7.132;2024-02-21T05:46:49;100716.91;;;7.72;84.39
81181;BME280;70650;51.408;7.132;2024-02-21T05:49:14;100723.13;;;7.69;84.78
81181;BME280;70650;51.408;7.132;2024-02-21T05:51:40;100726.69;;;7.68;84.51
81181;BME280;70650;51.408;7.132;2024-02-21T05:54:05;100723.06;;;7.71;84.26
81181;BME280;70650;51.408;7.132;2024-02-21T05:56:32;100719.53;;;7.72;84.29
81181;BME280;70650;51.408;7.132;2024-02-21T05:58:58;100707.28;;;7.71;84.03
81181;BME280;70650;51.408;7.132;2024-02-21T06:01:23;100707.25;;;7.73;83.68
81181;BME280;70650;51.408;7.132;2024-02-21T06:03:49;100700.25;;;7.72;83.84
81181;BME280;70650;51.408;7.132;2024-02-21T06:06:14;100700.91;;;7.77;83.21
81181;BME280;70650;51.408;7.132;2024-02-21T06:08:42;100692.22;;;7.75;83.28
81181;BME280;70650;51.408;7.132;2024-02-21T06:11:07;100694.94;;;7.73;83.46
81181;BME280;70650;51.408;7.132;2024-02-21T06:13:33;100687.75;;;7.77;83.17
81181;BME280;70650;51.408;7.132;2024-02-21T06:15:58;100689.38;;;7.81;83.08
81181;BME280;70650;51.408;7.132;2024-02-21T06:18:23;100678.84;;;7.81;82.38
81181;BME280;70650;51.408;7.132;2024-02-21T06:20:49;100676.22;;;7.81;82.26
81181;BME280;70650;51.408;7.132;2024-02-21T06:23:16;100675.28;;;7.82;82.53
81181;BME280;70650;51.408;7.132;2024-02-21T06:25:44;100666.50;;;7.83;82.67
81181;BME280;70650;51.408;7.132;2024-02-21T06:28:10;100667.53;;;7.79;82.57
81181;BME280;70650;51.408;7.132;2024-02-21T06:30:36;100663.03;;;7.81;82.40
81181;BME280;70650;51.408;7.132;2024-02-21T06:33:01;100665.81;;;7.78;82.52
81181;BME280;70650;51.408;7.132;2024-02-21T06:35:30;100667.38;;;7.82;82.41
81181;BME280;70650;51.408;7.132;2024-02-21T06:37:56;100656.75;;;7.85;81.81
81181;BME280;70650;51.408;7.132;2024-02-21T06:40:23;100647.25;;;7.81;82.34
81181;BME280;70650;51.408;7.132;2024-02-21T06:42:50;100642.75;;;7.84;82.00
81181;BME280;70650;51.408;7.132;2024-02-21T06:45:18;100641.03;;;7.83;81.93
81181;BME280;70650;51.408;7.132;2024-02-21T06:47:43;100639.28;;;7.82;81.80
81181;BME280;70650;51.408;7.132;2024-02-21T06:50:09;100640.09;;;7.84;81.63
81181;BME280;70650;51.408;7.132;2024-02-21T06:52:35;100648.78;;;7.86;81.84
81181;BME280;70650;51.408;7.132;2024-02-21T06:55:00;100643.59;;;7.85;81.32
81181;BME280;70650;51.408;7.132;2024-02-21T06:57:29;100639.13;;;7.87;81.16
81181;BME280;70650;51.408;7.132;2024-02-21T06:59:54;100641.69;;;7.88;81.37
81181;BME280;70650;51.408;7.132;2024-02-21T07:02:19;100638.16;;;7.89;81.31
81181;BME280;70650;51.408;7.132;2024-02-21T07:04:45;100638.19;;;7.88;81.08
81181;BME280;70650;51.408;7.132;2024-02-21T07:07:10;100649.38;;;7.94;80.92
81181;BME280;70650;51.408;7.132;2024-02-21T07:09:38;100652.00;;;7.94;80.54
81181;BME280;70650;51.408;7.132;2024-02-21T07:12:03;100650.22;;;7.95;80.94
81181;BME280;70650;51.408;7.132;2024-02-21T07:14:30;100645.84;;;7.94;81.18
81181;BME280;70650;51.408;7.132;2024-02-21T07:16:55;100658.63;;;8.05;80.54
81181;BME280;70650;51.408;7.132;2024-02-21T07:19:22;100653.66;;;7.97;81.12
81181;BME280;70650;51.408;7.132;2024-02-21T07:21:47;100648.38;;;7.97;81.08
81181;BME280;70650;51.408;7.132;2024-02-21T07:24:13;100641.34;;;7.97;80.74
81181;BME280;70650;51.408;7.132;2024-02-21T07:26:42;100643.88;;;8.01;81.06
81181;BME280;70650;51.408;7.132;2024-02-21T07:29:11;100638.47;;;8.04;81.19
81181;BME280;70650;51.408;7.132;2024-02-21T07:31:40;100638.38;;;8.07;81.48
81181;BME280;70650;51.408;7.132;2024-02-21T07:34:06;100639.16;;;8.09;80.49
81181;BME280;70650;51.408;7.132;2024-02-21T07:36:31;100627.00;;;8.05;80.93
81181;BME280;70650;51.408;7.132;2024-02-21T07:38:56;100627.09;;;8.03;80.75
81181;BME280;70650;51.408;7.132;2024-02-21T07:41:22;100624.34;;;8.06;81.49
81181;BME280;70650;51.408;7.132;2024-02-21T07:43:47;100631.41;;;8.04;80.72
81181;BME280;70650;51.408;7.132;2024-02-21T07:46:15;100618.75;;;8.14;80.80
81181;BME280;70650;51.408;7.132;2024-02-21T07:48:40;100622.38;;;8.11;80.56
81181;BME280;70650;51.408;7.132;2024-02-21T07:51:06;100627.59;;;8.13;80.29
81181;BME280;70650;51.408;7.132;2024-02-21T07:53:31;100631.00;;;8.15;79.89
81181;BME280;70650;51.408;7.132;2024-02-21T07:55:56;100620.53;;;8.13;80.37
81181;BME280;70650;51.408;7.132;2024-02-21T07:58:21;100621.50;;;8.11;80.02
81181;BME280;70650;51.408;7.132;2024-02-21T08:00:47;100605.66;;;8.12;79.75
81181;BME280;70650;51.408;7.132;2024-02-21T08:03:13;100607.47;;;8.10;80.75
81181;BME280;70650;51.408;7.132;2024-02-21T08:05:40;100601.97;;;8.16;80.66
81181;BME280;70650;51.408;7.132;2024-02-21T08:08:06;100594.19;;;8.13;80.31
81181;BME280;70650;51.408;7.132;2024-02-21T08:10:32;100592.66;;;8.08;80.90
81181;BME280;70650;51.408;7.132;2024-02-21T08:12:57;100590.81;;;8.10;80.87
81181;BME280;70650;51.408;7.132;2024-02-21T08:15:24;100578.47;;;8.12;80.53
81181;BME280;70650;51.408;7.132;2024-02-21T08:17:53;100575.78;;;8.13;80.38
81181;BME280;70650;51.408;7.132;2024-02-21T08:20:18;100579.94;;;8.19;80.65
81181;BME280;70650;51.408;7.132;2024-02-21T08:22:44;100571.19;;;8.18;80.27
81181;BME280;70650;51.408;7.132;2024-02-21T08:25:10;100565.84;;;8.20;80.43
81181;BME280;70650;51.408;7.132;2024-02-21T08:27:37;100568.47;;;8.20;80.73
81181;BME280;70650;51.408;7.132;2024-02-21T08:30:02;100561.56;;;8.17;80.93
81181;BME280;70650;51.408;7.132;2024-02-21T08:32:29;100554.34;;;8.22;81.04
81181;BME280;70650;51.408;7.132;2024-02-21T08:34:55;100559.53;;;8.24;81.22
81181;BME280;70650;51.408;7.132;2024-02-21T08:37:20;100550.28;;;8.14;81.32
81181;BME280;70650;51.408;7.132;2024-02-21T08:39:48;100546.78;;;8.13;81.43
81181;BME280;70650;51.408;7.132;2024-02-21T08:42:13;100561.81;;;8.11;81.74
81181;BME280;70650;51.408;7.132;2024-02-21T08:44:39;100555.19;;;8.01;81.77
81181;BME280;70650;51.408;7.132;2024-02-21T08:47:05;100548.09;;;8.03;82.13
81181;BME280;70650;51.408;7.132;2024-02-21T08:49:31;100545.63;;;7.98;82.25
81181;BME280;70650;51.408;7.132;2024-02-21T08:51:57;100544.25;;;7.90;82.45
81181;BME280;70650;51.408;7.132;2024-02-21T08:54:22;100553.78;;;7.92;82.50
81181;BME280;70650;51.408;7.132;2024-02-21T08:56:47;100553.94;;;7.88;82.80
81181;BME280;70650;51.408;7.132;2024-02-21T08:59:13;100550.22;;;7.93;82.89
81181;BME280;70650;51.408;7.132;2024-02-21T09:01:40;100543.50;;;7.86;83.19
81181;BME280;70650;51.408;7.132;2024-02-21T09:04:05;100543.16;;;7.94;83.26
81181;BME280;70650;51.408;7.132;2024-02-21T09:06:30;100525.13;;;7.85;83.42
81181;BME280;70650;51.408;7.132;2024-02-21T09:08:58;100528.56;;;7.87;83.43
81181;BME280;70650;51.408;7.132;2024-02-21T09:11:23;100523.28;;;7.87;83.85
81181;BME280;70650;51.408;7.132;2024-02-21T09:13:49;100523.19;;;7.90;83.97
81181;BME280;70650;51.408;7.132;2024-02-21T09:16:14;100522.34;;;7.88;84.37
81181;BME280;70650;51.408;7.132;2024-02-21T09:18:42;100528.97;;;7.76;84.12
81181;BME280;70650;51.408;7.132;2024-02-21T09:21:07;100511.72;;;7.69;84.26
81181;BME280;70650;51.408;7.132;2024-02-21T09:23:33;100510.69;;;7.73;84.63
81181;BME280;70650;51.408;7.132;2024-02-21T09:25:58;100514.19;;;7.74;84.92
81181;BME280;70650;51.408;7.132;2024-02-21T09:28:25;100515.63;;;7.81;84.40
81181;BME280;70650;51.408;7.132;2024-02-21T09:30:51;100508.59;;;7.81;84.47
81181;BME280;70650;51.408;7.132;2024-02-21T09:33:16;100510.19;;;7.85;84.39
81181;BME280;70650;51.408;7.132;2024-02-21T09:35:42;100505.19;;;7.79;84.93
81181;BME280;70650;51.408;7.132;2024-02-21T09:38:07;100511.22;;;7.81;84.68
81181;BME280;70650;51.408;7.132;2024-02-21T09:40:32;100493.91;;;7.76;85.10
81181;BME280;70650;51.408;7.132;2024-02-21T09:43:03;100494.06;;;7.71;85.19
81181;BME280;70650;51.408;7.132;2024-02-21T09:45:29;100496.09;;;7.64;85.69
81181;BME280;70650;51.408;7.132;2024-02-21T09:50:45;100479.34;;;7.67;85.91
81181;BME280;70650;51.408;7.132;2024-02-21T09:53:14;100488.22;;;7.64;86.03
81181;BME280;70650;51.408;7.132;2024-02-21T09:55:40;100484.53;;;7.68;85.88
81181;BME280;70650;51.408;7.132;2024-02-21T09:58:07;100490.59;;;7.70;86.12
81181;BME280;70650;51.408;7.132;2024-02-21T10:00:34;100492.09;;;7.78;85.45
81181;BME280;70650;51.408;7.132;2024-02-21T10:03:00;100495.44;;;7.81;84.97
81181;BME280;70650;51.408;7.132;2024-02-21T10:05:25;100490.78;;;7.88;85.06
81181;BME280;70650;51.408;7.132;2024-02-21T10:07:52;100499.59;;;7.87;85.06
81181;BME280;70650;51.408;7.132;2024-02-21T10:10:17;100489.06;;;7.87;85.14
81181;BME280;70650;51.408;7.132;2024-02-21T10:12:53;100484.78;;;7.84;85.34
81181;BME280;70650;51.408;7.132;2024-02-21T10:15:24;100492.50;;;7.89;85.23
81181;BME280;70650;51.408;7.132;2024-02-21T10:18:00;100493.16;;;7.94;84.19
81181;BME280;70650;51.408;7.132;2024-02-21T10:20:26;100473.75;;;7.96;83.52
81181;BME280;70650;51.408;7.132;2024-02-21T10:23:01;100466.59;;;8.00;82.57
81181;BME280;70650;51.408;7.132;2024-02-21T10:25:28;100471.09;;;8.18;82.38
81181;BME280;70650;51.408;7.132;2024-02-21T10:27:54;100471.09;;;8.18;81.17
81181;BME280;70650;51.408;7.132;2024-02-21T10:30:21;100460.13;;;8.28;80.16
81181;BME280;70650;51.408;7.132;2024-02-21T10:32:50;100462.50;;;8.34;79.87
81181;BME280;70650;51.408;7.132;2024-02-21T10:35:28;100465.84;;;8.39;78.78
81181;BME280;70650;51.408;7.132;2024-02-21T10:37:55;100449.56;;;8.49;78.24
81181;BME280;70650;51.408;7.132;2024-02-21T10:40:25;100457.47;;;8.49;77.82
81181;BME280;70650;51.408;7.132;2024-02-21T10:42:57;100455.66;;;8.52;77.26
81181;BME280;70650;51.408;7.132;2024-02-21T10:45:35;100436.53;;;8.46;76.44
81181;BME280;70650;51.408;7.132;2024-02-21T10:48:15;100436.34;;;8.51;77.36
81181;BME280;70650;51.408;7.132;2024-02-21T10:58:48;100408.31;;;8.69;77.05
81181;BME280;70650;51.408;7.132;2024-02-21T11:01:14;100400.81;;;8.79;76.61
81181;BME280;70650;51.408;7.132;2024-02-21T11:03:42;100403.03;;;8.69;75.97
81181;BME280;70650;51.408;7.132;2024-02-21T11:06:10;100393.53;;;8.65;75.46
81181;BME280;70650;51.408;7.132;2024-02-21T11:08:37;100384.59;;;8.69;75.40
81181;BME280;70650;51.408;7.132;2024-02-21T11:11:04;100366.97;;;8.69;75.72
81181;BME280;70650;51.408;7.132;2024-02-21T11:13:35;100361.63;;;8.90;75.83
81181;BME280;70650;51.408;7.132;2024-02-21T11:16:10;100348.78;;;9.01;75.03
81181;BME280;70650;51.408;7.132;2024-02-21T11:18:37;100339.53;;;8.92;74.73
81181;BME280;70650;51.408;7.132;2024-02-21T11:21:02;100326.19;;;9.14;75.20
81181;BME280;70650;51.408;7.132;2024-02-21T11:23:30;100333.75;;;9.03;74.50
81181;BME280;70650;51.408;7.132;2024-02-21T11:26:06;100312.03;;;8.98;74.63
81181;BME280;70650;51.408;7.132;2024-02-21T11:28:32;100303.81;;;9.04;74.09
81181;BME280;70650;51.408;7.132;2024-02-21T11:31:13;100291.78;;;8.98;73.84
81181;BME280;70650;51.408;7.132;2024-02-21T11:33:40;100282.56;;;9.24;73.68
81181;BME280;70650;51.408;7.132;2024-02-21T11:36:07;100268.41;;;9.44;73.15
81181;BME280;70650;51.408;7.132;2024-02-21T11:38:33;100272.66;;;9.47;72.62
81181;BME280;70650;51.408;7.132;2024-02-21T11:40:58;100265.63;;;9.47;72.42
81181;BME280;70650;51.408;7.132;2024-02-21T11:43:25;100248.91;;;9.47;71.79
81181;BME280;70650;51.408;7.132;2024-02-21T11:45:51;100253.50;;;9.61;71.63
81181;BME280;70650;51.408;7.132;2024-02-21T11:48:23;100252.34;;;9.49;71.42
81181;BME280;70650;51.408;7.132;2024-02-21T11:50:56;100237.34;;;9.32;71.15
81181;BME280;70650;51.408;7.132;2024-02-21T11:53:22;100227.19;;;9.42;70.83
81181;BME280;70650;51.408;7.132;2024-02-21T11:55:47;100223.22;;;9.33;71.04
81181;BME280;70650;51.408;7.132;2024-02-21T11:58:13;100207.63;;;9.46;71.19
81181;BME280;70650;51.408;7.132;2024-02-21T12:00:38;100198.72;;;9.64;70.71
81181;BME280;70650;51.408;7.132;2024-02-21T12:03:04;100184.00;;;9.60;70.91
81181;BME280;70650;51.408;7.132;2024-02-21T12:05:30;100182.75;;;9.67;70.24
81181;BME280;70650;51.408;7.132;2024-02-21T12:07:55;100166.81;;;9.69;69.50
81181;BME280;70650;51.408;7.132;2024-02-21T12:10:21;100169.25;;;9.56;69.29
81181;BME280;70650;51.408;7.132;2024-02-21T12:12:46;100166.28;;;9.62;69.39
81181;BME280;70650;51.408;7.132;2024-02-21T12:15:13;100155.72;;;9.62;69.10
81181;BME280;70650;51.408;7.132;2024-02-21T12:17:39;100149.75;;;9.59;68.86
81181;BME280;70650;51.408;7.132;2024-02-21T12:20:06;100139.91;;;9.62;68.66
81181;BME280;70650;51.408;7.132;2024-02-21T12:22:35;100120.25;;;9.68;69.01
81181;BME280;70650;51.408;7.132;2024-02-21T12:25:03;100117.50;;;9.69;68.88
81181;BME280;70650;51.408;7.132;2024-02-21T12:27:29;100113.69;;;9.91;68.98
81181;BME280;70650;51.408;7.132;2024-02-21T12:29:55;100115.03;;;9.66;68.72
81181;BME280;70650;51.408;7.132;2024-02-21T12:32:20;100091.53;;;9.62;67.73
81181;BME280;70650;51.408;7.132;2024-02-21T12:34:45;100077.41;;;9.63;68.05
81181;BME280;70650;51.408;7.132;2024-02-21T12:37:11;100055.28;;;9.65;68.40
81181;BME280;70650;51.408;7.132;2024-02-21T12:39:38;100056.28;;;9.78;67.68
81181;BME280;70650;51.408;7.132;2024-02-21T12:42:04;100049.72;;;9.86;67.62
81181;BME280;70650;51.408;7.132;2024-02-21T12:44:31;100061.31;;;9.83;67.72
81181;BME280;70650;51.408;7.132;2024-02-21T12:46:58;100069.06;;;9.86;67.45
81181;BME280;70650;51.408;7.132;2024-02-21T12:49:23;100059.69;;;9.96;67.00
81181;BME280;70650;51.408;7.132;2024-02-21T12:51:49;100063.00;;;10.16;66.89
81181;BME280;70650;51.408;7.132;2024-02-21T12:54:14;100057.13;;;10.11;66.14
81181;BME280;70650;51.408;7.132;2024-02-21T12:56:40;100059.00;;;10.24;66.18
81181;BME280;70650;51.408;7.132;2024-02-21T12:59:06;100050.56;;;10.64;66.28
81181;BME280;70650;51.408;7.132;2024-02-21T13:01:34;100037.06;;;10.68;65.56
81181;BME280;70650;51.408;7.132;2024-02-21T13:04:00;100046.66;;;10.85;65.40
81181;BME280;70650;51.408;7.132;2024-02-21T13:06:26;100022.91;;;10.69;65.06